Time;durP1;ratioP1;P1;durP2;ratioP2;P2;SDS_P1;SDS_P2;PMS_P1;PMS_P2;Temp;Humidity;BMP_temperature;BMP_pressure;BME280_temperature;BME280_humidity;BME280_pressure;Samples;Min_cycle;Max_cycle;Signal;HPM_P1;HPM_P2
2023/03/21 00:00:46;;;;;;;10.33;6.50;;;10.80;73.90;;;13.94;47.58;97853.28;5030681;28;20041;-44
2023/03/21 00:03:15;;;;;;;6.53;4.50;;;10.80;73.90;;;13.96;47.55;97842.41;5030190;28;20112;-43
2023/03/21 00:05:50;;;;;;;4.10;3.43;;;10.80;73.60;;;14.02;47.54;97851.56;5030364;28;20416;-44
2023/03/21 00:08:20;;;;;;;5.33;3.03;;;10.80;73.50;;;14.03;47.46;97846.00;5022601;28;20045;-47
2023/03/21 00:10:56;;;;;;;4.70;2.47;;;10.90;73.30;;;14.03;47.42;97847.84;5031368;28;20045;-46
2023/03/21 00:13:25;;;;;;;3.53;2.80;;;10.80;73.40;;;13.95;47.64;97846.91;5023210;28;20045;-47
2023/03/21 00:15:53;;;;;;;3.83;2.70;;;10.80;74.00;;;13.92;47.61;97844.59;5030090;28;20045;-43
2023/03/21 00:18:45;;;;;;;5.00;3.00;;;10.70;74.20;;;13.95;47.80;97836.19;5031019;28;20041;-45
2023/03/21 00:21:16;;;;;;;4.53;3.00;;;10.70;75.20;;;13.93;47.64;97838.22;5030211;28;20044;-48
2023/03/21 00:24:05;;;;;;;3.33;2.90;;;10.70;74.20;;;13.93;47.80;97838.22;5031002;28;20049;-45
2023/03/21 00:26:33;;;;;;;4.57;2.87;;;10.70;74.00;;;13.95;47.78;97835.38;5029947;28;20053;-47
2023/03/21 00:29:00;;;;;;;3.67;2.37;;;10.80;74.20;;;13.98;47.23;97835.84;5029041;28;20049;-48
2023/03/21 00:31:29;;;;;;;3.23;2.90;;;10.80;73.30;;;14.01;47.20;97833.81;5030943;28;20591;-44
2023/03/21 00:33:56;;;;;;;4.73;3.10;;;10.80;72.30;;;13.99;47.20;97824.09;5030913;28;20052;-44
2023/03/21 00:36:24;;;;;;;4.40;3.00;;;10.80;72.40;;;13.99;47.36;97821.44;5030076;28;20038;-48
2023/03/21 00:38:53;;;;;;;4.47;3.20;;;10.90;72.60;;;13.98;47.38;97814.44;5030834;28;20436;-49
2023/03/21 00:41:21;;;;;;;4.83;3.00;;;10.80;72.70;;;13.99;47.78;97817.94;5029479;28;20041;-44
2023/03/21 00:44:12;;;;;;;6.27;2.73;;;10.80;73.40;;;14.01;47.91;97813.22;5030848;28;20501;-43
2023/03/21 00:46:41;;;;;;;4.57;2.38;;;10.80;73.80;;;14.02;47.94;97809.56;5031121;28;20046;-44
2023/03/21 00:49:27;;;;;;;3.87;2.80;;;10.90;73.90;;;13.98;47.72;97810.94;5022974;28;20052;-44
2023/03/21 00:51:55;;;;;;;5.47;3.28;;;10.80;74.10;;;13.94;47.96;97806.94;5030702;28;20053;-45
2023/03/21 00:54:34;;;;;;;3.63;2.60;;;10.70;74.60;;;13.91;48.06;97799.25;5029382;28;20045;-48
2023/03/21 00:57:04;;;;;;;5.32;3.05;;;10.70;74.80;;;13.86;48.11;97799.81;5030842;28;20042;-44
2023/03/21 00:59:31;;;;;;;3.97;2.80;;;10.70;74.90;;;13.83;48.18;97796.66;5030444;28;20543;-45
2023/03/21 01:01:59;;;;;;;4.50;3.20;;;10.70;75.00;;;13.85;48.01;97803.47;5030701;28;20050;-48
2023/03/21 01:04:27;;;;;;;4.30;2.50;;;10.70;74.70;;;13.88;47.86;97796.94;5030469;28;20052;-43
2023/03/21 01:06:55;;;;;;;4.28;3.10;;;10.70;74.30;;;13.90;47.72;97798.44;5030903;28;20049;-44
2023/03/21 01:09:24;;;;;;;3.58;2.60;;;10.80;73.80;;;13.91;47.54;97797.41;5029470;28;20041;-43
2023/03/21 01:11:53;;;;;;;5.57;2.60;;;10.70;73.70;;;13.93;47.65;97790.03;5013165;28;20053;-44
2023/03/21 01:14:22;;;;;;;3.88;2.45;;;10.80;73.50;;;13.93;47.76;97787.34;5021303;28;20041;-44
2023/03/21 01:16:52;;;;;;;3.90;2.70;;;10.70;73.40;;;13.91;48.01;97783.22;5030928;28;20450;-46
2023/03/21 01:19:25;;;;;;;3.80;3.03;;;10.70;74.40;;;13.91;47.70;97780.53;5021157;28;20045;-48
2023/03/21 01:22:07;;;;;;;3.55;2.75;;;10.70;74.30;;;13.93;47.95;97775.81;5029379;28;20429;-44
2023/03/21 01:24:35;;;;;;;4.30;3.03;;;10.70;74.80;;;13.90;48.09;97777.03;5029308;28;20048;-45
2023/03/21 01:27:10;;;;;;;6.38;3.70;;;10.70;75.10;;;13.91;48.04;97781.34;5030566;28;20100;-44
2023/03/21 01:29:37;;;;;;;7.47;3.73;;;10.70;75.00;;;13.89;48.12;97777.19;5028651;28;20056;-44
2023/03/21 01:32:05;;;;;;;5.23;4.30;;;10.70;75.50;;;13.89;48.15;97778.03;5030082;28;20041;-44
2023/03/21 01:34:33;;;;;;;5.80;3.53;;;10.70;75.40;;;13.91;48.38;97780.53;5029624;28;20053;-43
2023/03/21 01:37:00;;;;;;;3.90;3.43;;;10.80;75.50;;;13.90;48.15;97781.53;5028938;28;20049;-48
2023/03/21 01:39:33;;;;;;;7.33;4.43;;;10.80;75.60;;;13.89;48.31;97779.88;5026497;28;20034;-44
2023/03/21 01:42:01;;;;;;;5.33;3.30;;;10.70;75.50;;;13.88;48.43;97779.06;5032912;28;20069;-43
2023/03/21 01:44:29;;;;;;;6.83;3.97;;;10.70;75.50;;;13.89;48.48;97780.69;5033270;28;20408;-43
2023/03/21 01:46:58;;;;;;;4.63;3.63;;;10.70;75.80;;;13.87;48.26;97780.06;5016280;28;20398;-44
2023/03/21 01:49:51;;;;;;;4.67;3.53;;;10.70;75.70;;;13.84;48.38;97780.44;5034108;28;20421;-43
2023/03/21 01:52:36;;;;;;;4.87;3.93;;;10.60;75.90;;;13.78;48.70;97781.13;5025558;28;20037;-46
2023/03/21 01:55:12;;;;;;;5.97;3.93;;;10.60;76.70;;;13.77;48.71;97774.94;5017976;28;20057;-45
2023/03/21 01:57:55;;;;;;;4.77;3.70;;;10.60;76.60;;;13.77;48.74;97779.47;5017637;28;20050;-44
2023/03/21 02:00:54;;;;;;;5.17;3.07;;;10.60;76.70;;;13.75;48.70;97773.47;5031093;28;20064;-45
2023/03/21 02:03:36;;;;;;;6.30;4.00;;;10.50;76.50;;;13.74;48.88;97769.94;5032747;28;20053;-46
2023/03/21 02:06:47;;;;;;;4.23;2.90;;;10.60;76.90;;;13.65;48.45;97771.03;5032555;28;20053;-44
2023/03/21 02:09:32;;;;;;;4.83;2.77;;;10.50;76.70;;;13.64;48.78;97764.00;5010177;28;20180;-45
2023/03/21 02:12:01;;;;;;;4.13;2.67;;;10.50;76.30;;;13.64;48.39;97768.53;5016497;28;20501;-43
2023/03/21 02:14:33;;;;;;;5.63;2.83;;;10.40;75.90;;;13.63;48.40;97761.50;5032079;28;20520;-44
2023/03/21 02:17:53;;;;;;;3.20;2.50;;;10.40;75.60;;;13.54;49.04;97758.88;5032520;28;20044;-44
2023/03/21 02:21:26;;;;;;;5.23;3.10;;;10.40;75.80;;;13.51;48.37;97759.25;5003519;28;20052;-46
2023/03/21 02:25:00;;;;;;;5.97;3.57;;;10.30;76.40;;;13.45;48.76;97754.59;5033212;28;20446;-48
2023/03/21 02:27:50;;;;;;;4.67;2.80;;;10.20;76.60;;;13.47;48.69;97757.91;5026250;28;20049;-51
2023/03/21 02:31:15;;;;;;;4.47;3.03;;;10.30;77.00;;;13.42;48.43;97738.91;5016739;28;20057;-47
2023/03/21 02:34:26;;;;;;;5.80;3.20;;;10.30;76.50;;;13.38;48.76;97745.63;5012034;28;20531;-47
2023/03/21 02:37:17;;;;;;;4.68;3.13;;;10.20;77.40;;;13.35;48.82;97744.13;5014520;28;20045;-52
2023/03/21 02:40:09;;;;;;;4.90;3.20;;;10.20;76.80;;;13.33;48.86;97743.47;5031978;28;20057;-49
2023/03/21 02:42:57;;;;;;;3.77;2.77;;;10.10;76.60;;;13.31;48.50;97740.13;5026440;28;20046;-48
2023/03/21 02:45:42;;;;;;;4.93;2.70;;;10.10;76.80;;;13.31;48.71;97739.31;5010425;28;20048;-49
2023/03/21 02:48:21;;;;;;;5.13;3.33;;;10.10;76.70;;;13.28;48.86;97742.28;5031905;28;20053;-51
2023/03/21 02:51:03;;;;;;;4.67;3.47;;;10.10;76.70;;;13.29;48.77;97736.78;5031845;28;20053;-50
2023/03/21 02:53:39;;;;;;;5.63;3.27;;;10.10;76.90;;;13.31;49.09;97733.97;5014099;28;20052;-52
2023/03/21 02:56:09;;;;;;;7.40;4.90;;;10.10;76.80;;;13.28;48.85;97736.94;5031307;28;20417;-48
2023/03/21 02:58:42;;;;;;;8.30;5.03;;;10.10;76.70;;;13.27;49.02;97733.44;5015457;28;20501;-47
2023/03/21 03:01:10;;;;;;;7.13;5.30;;;10.10;76.70;;;13.27;48.78;97736.13;5031831;28;20048;-50
2023/03/21 03:03:43;;;;;;;5.03;3.63;;;10.10;76.50;;;13.28;48.88;97729.78;5031200;28;20056;-48
2023/03/21 03:06:27;;;;;;;4.27;3.57;;;10.10;76.50;;;13.30;48.86;97734.94;5032700;28;20057;-46
2023/03/21 03:09:55;;;;;;;8.60;5.23;;;10.10;76.00;;;13.30;48.73;97734.94;5030477;28;20071;-46
2023/03/21 03:13:06;;;;;;;5.37;4.40;;;10.10;75.90;;;13.35;48.46;97733.41;5030846;28;20072;-50
2023/03/21 03:16:04;;;;;;;5.57;4.27;;;10.20;75.60;;;13.36;48.34;97739.63;5031853;28;20316;-49
2023/03/21 03:18:55;;;;;;;4.23;3.63;;;10.20;75.70;;;13.30;48.54;97727.78;5008726;28;20049;-48
2023/03/21 03:21:55;;;;;;;6.33;3.13;;;10.10;76.10;;;13.30;48.69;97727.78;5031338;28;20049;-46
2023/03/21 03:24:35;;;;;;;3.87;3.10;;;10.20;75.50;;;13.32;48.34;97724.94;5031071;28;20045;-48
2023/03/21 03:27:16;;;;;;;4.03;2.80;;;10.10;75.40;;;13.31;48.58;97728.59;5031108;28;20495;-47
2023/03/21 03:29:47;;;;;;;3.30;2.60;;;10.10;75.60;;;13.29;48.54;97730.59;5014824;28;20045;-49
2023/03/21 03:32:34;;;;;;;4.67;2.73;;;10.10;75.80;;;13.26;48.60;97734.47;5031286;28;20045;-49
2023/03/21 03:35:05;;;;;;;4.43;2.73;;;10.10;75.90;;;13.26;48.36;97734.47;5015389;28;20061;-50
2023/03/21 03:37:36;;;;;;;4.13;3.23;;;10.10;75.80;;;13.27;48.57;97730.75;5030533;28;20053;-49
2023/03/21 03:40:17;;;;;;;3.30;2.70;;;10.10;75.70;;;13.25;48.32;97724.75;5030557;28;20413;-48
2023/03/21 03:43:01;;;;;;;4.20;2.87;;;10.10;75.90;;;13.23;48.72;97723.28;5029972;28;20057;-47
2023/03/21 03:45:42;;;;;;;4.57;3.10;;;10.00;75.70;;;13.22;48.46;97721.59;5015479;28;20049;-46
2023/03/21 03:48:32;;;;;;;6.50;3.30;;;10.00;75.70;;;13.19;48.56;97726.31;5030353;28;20417;-47
2023/03/21 03:51:09;;;;;;;4.37;2.97;;;10.00;75.60;;;13.20;48.38;97719.09;5014856;28;20045;-47
2023/03/21 03:54:06;;;;;;;4.20;3.13;;;10.00;75.30;;;13.20;48.42;97713.75;5019700;28;20045;-48
2023/03/21 03:56:35;;;;;;;7.23;2.80;;;10.00;75.20;;;13.17;48.33;97722.97;5007476;28;20052;-48
2023/03/21 03:59:06;;;;;;;3.77;3.10;;;10.00;75.30;;;13.14;48.60;97715.31;5030092;28;20056;-48
2023/03/21 04:01:52;;;;;;;4.20;2.90;;;10.00;75.40;;;13.11;48.60;97718.34;5029896;28;20514;-51
2023/03/21 04:04:21;;;;;;;5.33;2.67;;;10.00;75.80;;;13.11;48.29;97712.16;5030838;28;20045;-46
2023/03/21 04:06:52;;;;;;;3.90;2.70;;;10.00;75.20;;;13.13;48.33;97716.31;5030209;28;20061;-47
2023/03/21 04:09:23;;;;;;;4.60;3.13;;;10.00;74.70;;;13.07;48.29;97714.34;5030376;28;20120;-48
2023/03/21 04:12:09;;;;;;;4.63;2.57;;;9.90;75.10;;;13.04;48.36;97712.00;5029876;28;20049;-49
2023/03/21 04:14:39;;;;;;;3.67;2.87;;;9.80;75.70;;;13.00;48.73;97716.03;5030088;28;20041;-51
2023/03/21 04:17:14;;;;;;;3.10;2.40;;;9.80;76.00;;;12.97;48.70;97703.06;5030451;28;20048;-48
2023/03/21 04:19:42;;;;;;;3.97;2.43;;;9.80;76.40;;;12.89;48.70;97709.28;5029731;28;20045;-49
2023/03/21 04:22:11;;;;;;;5.50;3.60;;;9.70;76.80;;;12.81;49.10;97709.28;5029521;28;20049;-50
2023/03/21 04:24:42;;;;;;;4.10;3.07;;;9.60;77.30;;;12.78;49.33;97715.81;5030288;28;20049;-50
2023/03/21 04:27:10;;;;;;;5.47;3.07;;;9.60;77.60;;;12.75;48.98;97715.31;5029821;28;20061;-48
2023/03/21 04:29:41;;;;;;;5.50;2.83;;;9.50;77.40;;;12.68;49.06;97715.19;5014222;28;20048;-46
2023/03/21 04:32:41;;;;;;;4.03;2.53;;;9.40;77.60;;;12.64;49.22;97700.53;5034670;28;20523;-48
2023/03/21 04:35:14;;;;;;;4.40;3.00;;;9.40;78.00;;;12.61;49.53;97700.84;5014701;28;20041;-49
2023/03/21 04:37:41;;;;;;;4.23;2.80;;;9.40;78.30;;;12.59;49.36;97701.03;5029310;28;20045;-48
2023/03/21 04:40:16;;;;;;;5.43;3.00;;;9.40;78.20;;;12.61;49.38;97707.03;5027734;28;20499;-49
2023/03/21 04:42:46;;;;;;;4.60;2.90;;;9.40;78.20;;;12.66;49.22;97703.00;5029467;28;20052;-47
2023/03/21 04:45:16;;;;;;;3.90;2.93;;;9.50;78.20;;;12.69;49.38;97703.50;5029639;28;20046;-48
2023/03/21 04:47:45;;;;;;;5.57;3.13;;;9.50;78.00;;;12.70;49.21;97705.16;5029465;28;20061;-44
2023/03/21 04:50:14;;;;;;;3.97;2.87;;;9.50;78.00;;;12.67;49.61;97692.16;5029762;28;20057;-43
2023/03/21 04:52:43;;;;;;;5.27;2.93;;;9.50;77.80;;;12.65;49.52;97696.84;5013076;28;20053;-45
2023/03/21 04:55:10;;;;;;;3.53;2.50;;;9.50;78.00;;;12.64;49.71;97686.31;5029204;28;20049;-44
2023/03/21 04:57:39;;;;;;;3.57;2.60;;;9.40;78.00;;;12.67;49.46;97688.66;5029405;28;20044;-45
2023/03/21 05:00:11;;;;;;;3.30;2.60;;;9.50;78.20;;;12.71;49.50;97689.97;5029520;28;20041;-44
2023/03/21 05:02:39;;;;;;;3.83;3.30;;;9.50;77.50;;;12.67;49.38;97689.47;5029608;28;20045;-43
2023/03/21 05:05:10;;;;;;;4.93;2.90;;;9.50;78.80;;;12.69;49.35;97700.00;5030522;28;20048;-43
2023/03/21 05:07:40;;;;;;;5.07;2.93;;;9.60;77.80;;;12.73;49.38;97694.13;5030566;28;20048;-45
2023/03/21 05:10:11;;;;;;;6.00;2.87;;;9.60;77.30;;;12.77;49.32;97705.28;5028976;28;20094;-47
2023/03/21 05:12:41;;;;;;;5.10;3.30;;;9.60;77.40;;;12.74;49.02;97698.47;5013386;28;20563;-48
2023/03/21 05:15:09;;;;;;;4.97;3.10;;;9.60;77.30;;;12.72;49.21;97697.00;5030570;28;20425;-48
2023/03/21 05:17:37;;;;;;;5.27;3.10;;;9.60;77.60;;;12.74;49.00;97703.00;5032884;28;20523;-45
2023/03/21 05:20:08;;;;;;;5.10;3.43;;;9.60;77.20;;;12.75;49.13;97709.97;5033634;28;20416;-49
2023/03/21 05:22:39;;;;;;;4.77;3.43;;;9.60;77.00;;;12.73;49.30;97698.63;5010595;28;20045;-51
2023/03/21 05:25:10;;;;;;;4.60;3.37;;;9.60;77.00;;;12.71;49.27;97708.66;5033151;28;20049;-49
2023/03/21 05:28:03;;;;;;;5.37;3.47;;;9.50;77.10;;;12.63;49.47;97698.84;5032924;28;20389;-49
2023/03/21 05:30:32;;;;;;;6.23;3.80;;;9.40;77.30;;;12.55;49.37;97699.72;5032721;28;20057;-50
2023/03/21 05:33:01;;;;;;;5.83;3.33;;;9.30;77.90;;;12.51;49.55;97694.91;5033644;28;20076;-51
2023/03/21 05:35:30;;;;;;;4.73;3.10;;;9.30;78.20;;;12.50;49.75;97698.56;5033026;28;20042;-45
2023/03/21 05:38:00;;;;;;;4.20;3.40;;;9.30;78.30;;;12.48;49.56;97700.56;5032356;28;20049;-49
2023/03/21 05:40:32;;;;;;;4.10;3.07;;;9.30;78.30;;;12.47;49.83;97699.75;5032725;28;20038;-49
2023/03/21 05:42:59;;;;;;;5.17;3.40;;;9.30;78.30;;;12.49;49.62;97703.06;5032196;28;20052;-49
2023/03/21 05:45:27;;;;;;;7.67;3.37;;;9.30;78.30;;;12.48;49.75;97706.72;5033265;28;20061;-44
2023/03/21 05:47:55;;;;;;;4.90;3.47;;;9.40;78.20;;;12.49;49.67;97705.75;5032327;28;20060;-46
2023/03/21 05:50:28;;;;;;;4.77;3.20;;;9.30;78.20;;;12.50;49.59;97707.38;5033365;28;20524;-44
2023/03/21 05:53:16;;;;;;;6.63;3.47;;;9.40;78.20;;;12.49;49.38;97703.06;5018910;28;20417;-45
2023/03/21 05:55:44;;;;;;;5.87;3.70;;;9.30;78.10;;;12.47;49.35;97704.25;5040789;28;20409;-48
2023/03/21 05:58:23;;;;;;;4.43;3.17;;;9.30;78.10;;;12.49;49.82;97704.91;5031884;28;20054;-46
2023/03/21 06:00:51;;;;;;;5.97;3.83;;;9.30;78.10;;;12.50;49.38;97703.91;5032542;28;20057;-46
2023/03/21 06:03:26;;;;;;;7.37;3.40;;;9.40;77.90;;;12.47;49.09;97707.75;5032272;28;20041;-43
2023/03/21 06:06:02;;;;;;;7.03;3.57;;;9.30;77.90;;;12.43;49.33;97705.56;5032881;28;20280;-48
2023/03/21 06:08:36;;;;;;;5.37;2.77;;;9.30;78.10;;;12.41;49.31;97711.94;5032463;28;20056;-44
2023/03/21 06:11:19;;;;;;;5.93;3.27;;;9.30;78.10;;;12.41;49.16;97708.44;5032713;28;20054;-47
2023/03/21 06:13:47;;;;;;;5.35;3.10;;;9.30;77.70;;;12.45;49.18;97712.44;5018044;28;20045;-43
2023/03/21 06:16:14;;;;;;;6.73;3.90;;;9.30;77.30;;;12.44;49.24;97708.09;5032702;28;20064;-45
2023/03/21 06:18:42;;;;;;;9.27;6.03;;;9.40;77.10;;;12.41;49.29;97709.25;5033026;28;20037;-45
2023/03/21 06:21:23;;;;;;;10.00;5.47;;;9.30;77.20;;;12.39;49.58;97707.78;5031784;28;20515;-45
2023/03/21 06:23:53;;;;;;;12.40;6.80;;;9.30;77.30;;;12.40;49.43;97715.59;5031557;28;20041;-46
2023/03/21 06:26:22;;;;;;;13.67;7.33;;;9.30;77.30;;;12.39;49.52;97707.78;5032657;28;20060;-45
2023/03/21 06:28:52;;;;;;;7.37;4.07;;;9.30;77.30;;;12.41;49.34;97705.78;5031324;28;20057;-45
2023/03/21 06:31:21;;;;;;;3.87;3.07;;;9.30;77.10;;;12.41;49.39;97701.25;5032158;28;20105;-42
2023/03/21 06:33:51;;;;;;;4.13;3.23;;;9.30;77.10;;;12.44;49.16;97705.41;5031829;28;20409;-45
2023/03/21 06:36:19;;;;;;;3.90;3.40;;;9.40;77.10;;;12.44;49.40;97701.91;5033207;28;20389;-47
2023/03/21 06:38:47;;;;;;;4.43;3.23;;;9.40;76.90;;;12.48;49.25;97704.06;5031678;28;20509;-43
2023/03/21 06:41:15;;;;;;;4.90;3.17;;;9.40;76.80;;;12.49;49.11;97699.56;5031796;28;20060;-43
2023/03/21 06:43:50;;;;;;;4.10;2.70;;;9.40;76.70;;;12.51;49.35;97703.72;5031106;28;20417;-46
2023/03/21 06:46:19;;;;;;;5.67;3.60;;;9.40;76.70;;;12.52;49.00;97693.88;5031733;28;20045;-44
2023/03/21 06:48:47;;;;;;;4.50;2.50;;;9.40;76.40;;;12.58;49.46;97695.84;5031884;28;20062;-44
2023/03/21 06:51:15;;;;;;;4.17;2.33;;;9.50;76.30;;;12.63;49.02;97698.84;5031725;28;20050;-46
2023/03/21 06:53:56;;;;;;;4.13;2.30;;;9.60;76.00;;;12.70;49.10;97694.50;5031295;28;20060;-45
2023/03/21 06:56:29;;;;;;;3.20;2.17;;;9.60;75.50;;;12.79;48.74;97695.28;5031380;28;20273;-45
2023/03/21 06:58:57;;;;;;;2.87;2.20;;;9.70;75.10;;;12.85;48.40;97699.09;5031349;28;20053;-47
2023/03/21 07:01:44;;;;;;;4.47;2.67;;;9.80;74.80;;;12.93;48.25;97694.56;5031676;28;20505;-43
2023/03/21 07:04:12;;;;;;;5.20;2.27;;;9.90;75.20;;;13.01;48.29;97696.34;5031478;28;20559;-45
2023/03/21 07:06:41;;;;;;;3.53;2.20;;;10.00;73.90;;;13.08;48.22;97694.63;5031816;28;20511;-45
2023/03/21 07:09:08;;;;;;;3.30;1.97;;;10.10;73.70;;;13.15;48.13;97705.44;5031044;28;20058;-47
2023/03/21 07:11:37;;;;;;;3.77;2.47;;;10.20;73.10;;;13.19;47.97;97699.56;5014850;28;20448;-43
2023/03/21 07:14:05;;;;;;;4.27;2.00;;;10.20;73.10;;;13.28;47.81;97696.84;5031604;28;20046;-44
2023/03/21 07:16:33;;;;;;;3.47;2.30;;;10.30;72.30;;;13.34;47.77;97701.53;5033061;28;20871;-45
2023/03/21 07:19:01;;;;;;;7.60;3.87;;;10.30;72.10;;;13.39;47.58;97699.13;5032306;28;20049;-43
2023/03/21 07:21:28;;;;;;;5.33;1.97;;;10.40;71.60;;;13.43;47.23;97703.13;5032158;28;20045;-45
2023/03/21 07:23:56;;;;;;;5.67;2.10;;;10.40;71.10;;;13.48;47.26;97698.06;5026950;28;20106;-44
2023/03/21 07:26:23;;;;;;;3.70;2.20;;;10.50;71.10;;;13.54;47.41;97705.38;5030850;28;20492;-44
2023/03/21 07:28:51;;;;;;;4.60;2.40;;;10.50;70.90;;;13.58;47.17;97700.50;5030760;28;20445;-44
2023/03/21 07:31:19;;;;;;;2.90;2.03;;;10.60;70.50;;;13.64;46.87;97702.47;5026989;28;20065;-44
2023/03/21 07:33:48;;;;;;;5.00;2.67;;;10.70;70.20;;;13.65;46.71;97705.97;5020602;28;20413;-44
2023/03/21 07:36:15;;;;;;;3.03;1.90;;;10.70;69.50;;;13.66;46.79;97710.31;5030718;28;20053;-46
2023/03/21 07:38:45;;;;;;;2.90;2.07;;;10.70;69.40;;;13.64;46.69;97707.81;5030247;28;20057;-44
2023/03/21 07:41:13;;;;;;;3.33;2.23;;;10.70;69.40;;;13.66;46.66;97713.81;5026424;28;20449;-42
2023/03/21 07:43:45;;;;;;;3.00;2.37;;;10.70;69.60;;;13.70;46.49;97707.09;5023332;28;20046;-44
2023/03/21 07:46:13;;;;;;;4.23;2.10;;;10.70;69.20;;;13.71;46.65;97707.94;5030797;28;20053;-44
2023/03/21 07:48:40;;;;;;;3.03;2.28;;;10.70;69.50;;;13.72;46.50;97704.25;5031759;28;20037;-43
2023/03/21 07:51:08;;;;;;;3.13;2.13;;;10.70;69.50;;;13.72;46.30;97704.25;5031857;28;20054;-46
2023/03/21 07:53:36;;;;;;;3.67;2.13;;;10.70;69.20;;;13.74;46.41;97695.00;5030210;28;20433;-46
2023/03/21 07:56:04;;;;;;;3.40;2.27;;;10.80;69.20;;;13.79;46.52;97699.84;5031587;28;20052;-44
2023/03/21 07:58:33;;;;;;;3.73;2.30;;;10.90;69.30;;;13.85;46.48;97704.47;5031422;28;20041;-46
2023/03/21 08:01:01;;;;;;;3.93;2.30;;;10.80;69.20;;;13.89;46.53;97702.28;5031635;28;20045;-45
2023/03/21 08:03:30;;;;;;;4.17;2.90;;;10.90;69.20;;;13.94;46.56;97699.91;5031543;28;20045;-47
2023/03/21 08:06:00;;;;;;;3.38;2.10;;;11.00;69.10;;;14.01;46.23;97697.31;5030595;28;20056;-48
2023/03/21 08:08:28;;;;;;;5.00;2.77;;;11.00;68.20;;;14.05;45.98;97703.97;5030190;28;20128;-44
2023/03/21 08:10:56;;;;;;;6.50;3.30;;;11.10;68.20;;;14.10;45.92;97705.09;5030286;28;20072;-47
2023/03/21 08:13:24;;;;;;;5.00;2.43;;;11.10;68.10;;;14.17;45.60;97699.81;5031244;28;20049;-44
2023/03/21 08:15:52;;;;;;;4.60;3.05;;;11.20;67.20;;;14.21;45.29;97690.44;5031463;28;20140;-43
2023/03/21 08:18:20;;;;;;;6.80;3.47;;;11.20;66.80;;;14.25;44.92;97696.22;5030945;28;20046;-47
2023/03/21 08:20:55;;;;;;;9.13;3.35;;;11.30;65.60;;;14.28;44.81;97688.66;5030016;28;20048;-47
2023/03/21 08:23:24;;;;;;;3.60;2.65;;;11.30;64.50;;;14.31;44.35;97688.31;5030123;28;20524;-46
2023/03/21 08:25:53;;;;;;;4.70;2.50;;;11.40;64.30;;;14.36;44.18;97690.41;5031333;28;20052;-48
2023/03/21 08:28:22;;;;;;;3.17;2.10;;;11.40;64.20;;;14.42;44.12;97692.34;5031391;28;20057;-44
2023/03/21 08:30:50;;;;;;;3.17;1.80;;;11.50;63.10;;;14.46;43.84;97690.16;5029596;28;20080;-46
2023/03/21 08:33:18;;;;;;;5.68;2.00;;;11.50;63.10;;;14.49;43.49;97693.28;5031105;28;20041;-43
2023/03/21 08:35:46;;;;;;;3.70;2.33;;;11.50;60.30;;;14.51;43.45;97688.56;5031236;28;20476;-43
2023/03/21 08:38:13;;;;;;;3.70;2.13;;;11.50;62.40;;;14.54;43.11;97680.19;5030809;28;20045;-44
2023/03/21 08:40:41;;;;;;;4.23;2.00;;;11.60;61.70;;;14.54;42.75;97682.88;5030788;28;20053;-42
2023/03/21 08:43:09;;;;;;;4.40;2.08;;;11.60;60.90;;;14.61;42.81;97691.00;5012281;28;20045;-43
2023/03/21 08:45:36;;;;;;;2.77;2.03;;;11.60;61.20;;;14.67;42.77;97684.06;5024330;28;20045;-45
2023/03/21 08:48:05;;;;;;;8.27;2.25;;;11.70;61.00;;;14.74;42.54;97677.78;5024887;28;20056;-42
2023/03/21 08:50:32;;;;;;;4.70;2.10;;;11.80;60.40;;;14.79;42.14;97674.53;5025181;28;20474;-47
2023/03/21 08:53:00;;;;;;;2.97;2.15;;;11.80;59.80;;;14.86;42.11;97671.94;5025799;28;20049;-46
2023/03/21 08:55:28;;;;;;;3.05;1.70;;;11.90;59.80;;;14.91;41.62;97672.22;5024119;28;20053;-46
2023/03/21 08:57:56;;;;;;;2.85;1.70;;;12.00;58.60;;;14.95;41.63;97668.97;5023469;28;20046;-47
2023/03/21 09:00:24;;;;;;;2.67;1.92;;;12.10;58.70;;;15.03;41.70;97672.56;5024728;28;20053;-45
2023/03/21 09:02:53;;;;;;;5.80;1.98;;;12.10;58.90;;;15.11;41.63;97669.78;5039708;28;20040;-45
2023/03/21 09:05:24;;;;;;;3.22;1.92;;;12.20;58.60;;;15.19;41.29;97675.00;5022346;28;20045;-44
2023/03/21 09:07:52;;;;;;;4.40;1.95;;;12.30;57.70;;;15.23;41.00;97668.25;5025027;28;20057;-44
2023/03/21 09:10:21;;;;;;;4.35;1.88;;;12.40;57.70;;;15.33;41.33;97668.78;5025819;28;20060;-48
2023/03/21 09:12:52;;;;;;;3.13;1.80;;;12.50;58.20;;;15.44;41.26;97669.28;5025642;28;20053;-44
2023/03/21 09:15:23;;;;;;;2.75;1.90;;;12.50;58.30;;;15.52;41.13;97669.97;5040016;28;20501;-42
2023/03/21 09:17:52;;;;;;;4.25;2.20;;;12.60;57.60;;;15.62;41.18;97666.97;5025519;28;20056;-45
2023/03/21 09:20:29;;;;;;;4.22;2.22;;;12.80;57.80;;;15.70;40.85;97668.69;5020755;28;20045;-43
2023/03/21 09:22:58;;;;;;;4.35;2.20;;;12.80;57.50;;;15.78;40.45;97667.75;5029259;28;20049;-45
2023/03/21 09:25:29;;;;;;;3.40;2.10;;;12.90;56.80;;;15.86;40.45;97670.31;5026216;28;20153;-45
2023/03/21 09:27:59;;;;;;;6.63;3.08;;;12.90;56.60;;;15.95;40.48;97663.75;5028811;28;20046;-44
2023/03/21 09:30:28;;;;;;;6.97;3.10;;;13.00;56.70;;;16.05;40.43;97661.59;5029763;28;20072;-44
2023/03/21 09:32:55;;;;;;;5.28;2.00;;;13.20;56.50;;;16.16;39.58;97664.75;5030295;28;20049;-48
2023/03/21 09:35:23;;;;;;;6.22;2.10;;;13.20;55.40;;;16.23;39.45;97669.13;5030856;28;20512;-44
2023/03/21 09:37:51;;;;;;;5.78;2.10;;;13.30;55.00;;;16.32;39.34;97665.28;5029602;28;20052;-46
2023/03/21 09:41:15;;;;;;;3.10;1.83;;;13.40;55.20;;;16.41;39.40;97668.63;5029999;28;20045;-43
2023/03/21 09:44:12;;;;;;;3.05;1.73;;;13.50;50.90;;;16.49;39.16;97668.44;5028217;28;20053;-47
2023/03/21 09:47:19;;;;;;;2.47;1.60;;;13.60;52.30;;;16.52;38.59;97667.25;5028914;28;20041;-45
2023/03/21 09:49:58;;;;;;;3.72;1.70;;;13.60;52.30;;;16.59;38.67;97662.72;5028643;28;20500;-44
2023/03/21 09:53:37;;;;;;;5.40;1.70;;;13.60;53.20;;;16.68;39.17;97669.59;5029428;28;20049;-45
2023/03/21 09:56:11;;;;;;;4.37;1.93;;;13.80;51.50;;;16.82;38.71;97662.44;5030032;28;20038;-43
2023/03/21 09:58:54;;;;;;;3.40;1.90;;;13.80;53.70;;;16.91;38.57;97660.41;5029601;28;20288;-48
2023/03/21 10:01:33;;;;;;;3.70;2.22;;;13.90;53.20;;;16.96;38.41;97654.44;5030091;28;20052;-45
2023/03/21 10:04:06;;;;;;;2.67;2.20;;;14.00;53.10;;;17.03;38.44;97653.41;5034593;28;20049;-45
2023/03/21 10:06:39;;;;;;;2.33;1.70;;;14.10;52.90;;;17.14;38.28;97654.72;5033378;28;20489;-45
2023/03/21 10:09:23;;;;;;;2.45;1.70;;;14.20;52.70;;;17.24;38.02;97646.25;5033028;28;20049;-46
2023/03/21 10:12:13;;;;;;;4.30;2.05;;;14.40;52.10;;;17.37;38.46;97648.13;5033440;28;20401;-48
2023/03/21 10:14:50;;;;;;;3.63;2.05;;;14.50;51.50;;;17.47;38.12;97635.94;5033439;28;20064;-45
2023/03/21 10:17:39;;;;;;;2.58;1.98;;;14.60;51.80;;;17.57;37.79;97634.69;5034301;28;20049;-44
2023/03/21 10:20:20;;;;;;;5.00;1.70;;;14.70;50.40;;;17.64;37.32;97633.66;5029005;28;20045;-46
2023/03/21 10:22:52;;;;;;;3.15;1.65;;;14.80;50.00;;;17.71;36.95;97641.75;5034725;28;20037;-45
2023/03/21 10:25:52;;;;;;;2.85;1.83;;;14.80;50.60;;;17.73;37.08;97631.59;5034677;28;20501;-44
2023/03/21 10:28:25;;;;;;;3.08;1.63;;;14.80;49.70;;;17.81;36.58;97635.94;5031968;28;20422;-45
2023/03/21 10:31:06;;;;;;;2.50;1.33;;;14.80;50.40;;;17.86;36.75;97623.53;5009330;28;20049;-46
2023/03/21 10:33:38;;;;;;;3.22;1.70;;;14.80;49.70;;;17.84;35.78;97622.09;5032891;28;20477;-48
2023/03/21 10:36:24;;;;;;;2.33;1.70;;;14.80;47.90;;;17.73;35.77;97622.69;5033271;28;20056;-43
2023/03/21 10:39:03;;;;;;;2.20;1.33;;;14.70;48.60;;;17.71;35.99;97621.03;5023872;28;20041;-44
2023/03/21 10:41:33;;;;;;;3.72;1.40;;;14.60;49.10;;;17.74;35.93;97617.09;5029655;28;20041;-48
2023/03/21 10:44:13;;;;;;;2.45;1.58;;;14.70;50.00;;;17.81;35.83;97622.47;5030631;28;20417;-46
2023/03/21 10:46:56;;;;;;;2.88;1.63;;;14.80;48.90;;;17.79;36.06;97621.84;5031602;28;20041;-43
2023/03/21 10:49:25;;;;;;;2.95;1.90;;;14.70;48.40;;;17.86;36.09;97620.03;5031825;28;20068;-48
2023/03/21 10:51:58;;;;;;;3.00;1.50;;;14.80;49.20;;;17.89;36.31;97619.59;5023899;28;20049;-46
2023/03/21 10:54:30;;;;;;;2.75;1.58;;;14.90;49.70;;;17.93;36.25;97620.81;5031308;28;20045;-43